Time;durP1;ratioP1;P1;durP2;ratioP2;P2;SDS_P1;SDS_P2;PMS_P1;PMS_P2;Temp;Humidity;BMP_temperature;BMP_pressure;BME280_temperature;BME280_humidity;BME280_pressure;Samples;Min_cycle;Max_cycle;Signal;HPM_P1;HPM_P2
2023/08/03 00:00:38;;;;;;;1.35;0.95;;;17.10;99.90;;;;;;5005718;28;20243;-61
2023/08/03 00:03:05;;;;;;;1.83;0.80;;;17.10;99.90;;;;;;5010641;28;20212;-61
2023/08/03 00:05:33;;;;;;;2.58;0.93;;;17.10;99.90;;;;;;5006626;28;20227;-60
2023/08/03 00:08:00;;;;;;;2.33;1.23;;;17.20;99.90;;;;;;5013665;28;20276;-60
2023/08/03 00:10:27;;;;;;;0.85;0.75;;;17.20;99.90;;;;;;4994621;28;20732;-61
2023/08/03 00:12:54;;;;;;;3.58;1.10;;;17.30;99.90;;;;;;5016341;28;20775;-60
2023/08/03 00:15:21;;;;;;;6.32;1.02;;;17.40;99.90;;;;;;5007188;28;20264;-60
2023/08/03 00:17:48;;;;;;;2.15;0.75;;;17.30;99.90;;;;;;5011811;28;20694;-60
2023/08/03 00:20:18;;;;;;;1.05;0.77;;;17.30;99.90;;;;;;5009788;28;20664;-60
2023/08/03 00:22:46;;;;;;;1.45;0.88;;;17.20;99.90;;;;;;5016754;28;20336;-60
2023/08/03 00:25:13;;;;;;;4.03;0.90;;;17.30;99.90;;;;;;5010109;28;20598;-59
2023/08/03 00:27:40;;;;;;;6.72;1.00;;;17.20;99.90;;;;;;5010267;28;20629;-60
2023/08/03 00:30:07;;;;;;;1.70;0.82;;;17.10;99.90;;;;;;4997907;28;20583;-60
2023/08/03 00:32:36;;;;;;;3.33;2.05;;;16.80;99.90;;;;;;5016340;28;20603;-60
2023/08/03 00:35:03;;;;;;;1.20;0.95;;;16.70;99.90;;;;;;4996849;28;20677;-60
2023/08/03 00:37:30;;;;;;;1.50;1.02;;;16.70;99.90;;;;;;5014066;28;20255;-60
2023/08/03 00:39:57;;;;;;;2.65;1.08;;;16.70;99.90;;;;;;4993280;28;20197;-60
2023/08/03 00:42:24;;;;;;;1.40;0.90;;;16.80;99.90;;;;;;5012483;28;20270;-60
2023/08/03 00:44:52;;;;;;;1.98;0.90;;;16.70;99.90;;;;;;5016729;28;20623;-60
2023/08/03 00:47:19;;;;;;;1.02;0.80;;;16.70;99.90;;;;;;5012165;28;20189;-59
2023/08/03 00:49:46;;;;;;;0.80;0.80;;;16.70;99.90;;;;;;4986598;28;20225;-60
2023/08/03 00:52:13;;;;;;;1.70;0.90;;;16.70;99.90;;;;;;4995519;28;20255;-59
2023/08/03 00:54:40;;;;;;;0.68;0.50;;;16.70;99.90;;;;;;4989015;28;20256;-59
2023/08/03 00:57:07;;;;;;;0.77;0.68;;;16.70;99.90;;;;;;4987968;28;20212;-60
2023/08/03 00:59:34;;;;;;;4.22;0.75;;;16.70;99.90;;;;;;4989446;28;20638;-59
2023/08/03 01:02:01;;;;;;;1.30;0.70;;;16.70;99.90;;;;;;4991741;28;20249;-60
2023/08/03 01:04:28;;;;;;;2.60;0.75;;;16.70;99.90;;;;;;5023116;23;20703;-68
2023/08/03 01:06:56;;;;;;;2.25;0.90;;;16.70;99.90;;;;;;5000072;28;20211;-68
2023/08/03 01:09:23;;;;;;;3.03;0.77;;;16.70;99.90;;;;;;5018587;28;20227;-68
2023/08/03 01:11:50;;;;;;;0.88;0.80;;;16.80;99.90;;;;;;5000315;28;20994;-68
2023/08/03 01:14:17;;;;;;;1.23;0.77;;;16.70;99.90;;;;;;5007022;28;20203;-70
2023/08/03 01:16:45;;;;;;;1.05;0.77;;;16.70;99.90;;;;;;5011766;28;20191;-68
2023/08/03 01:19:13;;;;;;;1.75;0.82;;;16.60;99.90;;;;;;5006267;28;20250;-70
2023/08/03 01:21:43;;;;;;;1.40;0.85;;;16.60;99.90;;;;;;5018608;28;20195;-67
2023/08/03 01:24:11;;;;;;;1.42;0.82;;;16.50;99.90;;;;;;5003606;28;20231;-67
2023/08/03 01:26:38;;;;;;;1.08;0.80;;;16.40;99.90;;;;;;5005237;28;20235;-67
2023/08/03 01:29:05;;;;;;;0.80;0.80;;;16.30;99.90;;;;;;5004434;28;20215;-67
2023/08/03 01:31:33;;;;;;;0.70;0.70;;;16.20;99.90;;;;;;5025622;28;20177;-67
2023/08/03 01:34:01;;;;;;;1.20;0.98;;;16.20;99.90;;;;;;5021811;28;20310;-68
2023/08/03 01:36:28;;;;;;;0.98;0.90;;;16.10;99.90;;;;;;5007401;28;20270;-68
2023/08/03 01:39:08;;;;;;;2.50;0.80;;;16.10;99.90;;;;;;5004914;28;20204;-67
2023/08/03 01:41:37;;;;;;;13.45;1.15;;;16.10;99.90;;;;;;5025776;28;20199;-68
2023/08/03 01:44:29;;;;;;;2.25;0.95;;;16.10;99.90;;;;;;5004985;28;20537;-68
2023/08/03 01:46:58;;;;;;;1.50;1.00;;;16.20;99.90;;;;;;5007592;28;20196;-67
2023/08/03 01:49:27;;;;;;;0.90;0.90;;;16.20;99.90;;;;;;5023560;28;20223;-67
2023/08/03 01:51:55;;;;;;;1.05;0.95;;;16.20;99.90;;;;;;5024319;28;20185;-67
2023/08/03 01:54:23;;;;;;;1.10;0.70;;;16.30;99.90;;;;;;5025731;28;20210;-67
2023/08/03 01:56:50;;;;;;;0.60;0.60;;;16.30;99.90;;;;;;5010817;28;20585;-68
2023/08/03 01:59:17;;;;;;;1.10;0.88;;;16.30;99.90;;;;;;4991750;28;20672;-67
2023/08/03 09:58:14;;;;;;;3.47;1.00;;;21.20;99.90;;;;;;4770641;28;20227;-66
2023/08/03 10:00:45;;;;;;;2.92;1.48;;;21.00;99.90;;;;;;5011582;28;20196;-66
2023/08/03 10:03:18;;;;;;;5.15;1.45;;;20.60;99.90;;;;;;5008893;28;20212;-66
2023/08/03 10:06:01;;;;;;;2.05;1.65;;;19.80;99.90;;;;;;5004228;28;20650;-66
2023/08/03 10:08:32;;;;;;;1.92;1.55;;;19.60;99.90;;;;;;4976907;28;20197;-66
2023/08/03 10:11:01;;;;;;;2.83;1.23;;;19.80;99.90;;;;;;4997357;28;20217;-65
2023/08/03 10:13:37;;;;;;;2.33;1.38;;;19.70;99.90;;;;;;5013048;28;20191;-65
2023/08/03 10:16:04;;;;;;;4.57;2.08;;;19.70;99.90;;;;;;5009978;28;20267;-65
2023/08/03 10:18:35;;;;;;;3.40;1.70;;;19.60;99.90;;;;;;5007699;28;20542;-64
2023/08/03 10:21:06;;;;;;;1.55;1.08;;;19.50;99.90;;;;;;5010877;28;20220;-65
2023/08/03 10:23:35;;;;;;;4.82;1.30;;;19.60;99.90;;;;;;5007126;28;20203;-65
2023/08/03 10:26:03;;;;;;;1.40;1.10;;;19.40;99.90;;;;;;5006663;28;20193;-65
2023/08/03 10:28:39;;;;;;;2.17;0.90;;;19.20;99.90;;;;;;5004257;28;20200;-66
2023/08/03 10:31:18;;;;;;;1.80;1.10;;;19.20;99.90;;;;;;5008581;28;20208;-65
2023/08/03 10:37:50;;;;;;;4.50;1.30;;;19.40;99.90;;;;;;4991334;28;20216;-65
2023/08/03 10:40:23;;;;;;;2.75;1.10;;;19.50;99.90;;;;;;5010397;28;20661;-65
2023/08/03 10:43:08;;;;;;;0.82;0.82;;;19.30;99.90;;;;;;4991197;28;20202;-65
2023/08/03 10:45:36;;;;;;;1.08;0.90;;;19.00;99.90;;;;;;4988533;28;20567;-65
2023/08/03 10:48:30;;;;;;;1.42;1.00;;;19.20;99.90;;;;;;5006304;28;20605;-66
2023/08/03 10:51:03;;;;;;;1.48;1.10;;;19.50;99.90;;;;;;4977234;28;20231;-68
2023/08/03 10:53:30;;;;;;;2.10;1.67;;;19.50;99.90;;;;;;4981298;28;20197;-65
2023/08/03 10:56:14;;;;;;;2.35;1.58;;;19.70;99.90;;;;;;4975017;28;20193;-65
2023/08/03 10:58:47;;;;;;;6.22;1.48;;;19.60;99.90;;;;;;5002686;28;20236;-67
2023/08/03 11:01:22;;;;;;;1.67;1.10;;;19.60;99.90;;;;;;4988250;28;20204;-69
2023/08/03 11:03:50;;;;;;;6.25;1.67;;;19.70;99.90;;;;;;4986306;28;20224;-63
2023/08/03 11:06:18;;;;;;;3.63;1.30;;;19.70;99.90;;;;;;4974952;28;20568;-61
2023/08/03 11:08:46;;;;;;;2.42;1.75;;;19.90;99.90;;;;;;4991303;28;20271;-62
2023/08/03 11:11:16;;;;;;;1.17;1.00;;;19.70;99.90;;;;;;5006119;28;20681;-62
2023/08/03 11:13:46;;;;;;;1.10;1.00;;;19.60;99.90;;;;;;5006437;28;20550;-62
2023/08/03 11:16:20;;;;;;;2.17;1.40;;;19.80;99.90;;;;;;4986500;28;20200;-63
2023/08/03 11:18:48;;;;;;;2.95;1.17;;;19.70;99.90;;;;;;5006193;28;20196;-63
2023/08/03 11:21:15;;;;;;;3.60;1.20;;;19.70;99.90;;;;;;4997476;28;20657;-63
2023/08/03 11:23:42;;;;;;;1.70;1.20;;;19.80;99.90;;;;;;5003436;28;20251;-63
2023/08/03 11:26:10;;;;;;;2.10;1.25;;;19.80;99.90;;;;;;4988692;28;20204;-62
2023/08/03 11:28:44;;;;;;;3.60;1.20;;;19.40;99.90;;;;;;5008282;28;20197;-62
2023/08/03 11:31:19;;;;;;;3.47;1.30;;;19.50;99.90;;;;;;4976370;28;20216;-62
2023/08/03 11:33:50;;;;;;;4.72;1.48;;;19.00;99.90;;;;;;5002443;28;20204;-63
2023/08/03 11:36:19;;;;;;;2.20;1.50;;;19.10;99.90;;;;;;4982993;28;20277;-62
2023/08/03 11:38:47;;;;;;;2.22;1.30;;;19.10;99.90;;;;;;5002556;28;20255;-62
2023/08/03 11:41:22;;;;;;;3.45;1.23;;;19.30;99.90;;;;;;5000541;28;20228;-63
2023/08/03 11:43:59;;;;;;;1.35;1.20;;;19.40;99.90;;;;;;5002911;28;20673;-62
2023/08/03 11:46:27;;;;;;;3.33;2.72;;;19.30;99.90;;;;;;4986047;28;20200;-62
2023/08/03 11:49:01;;;;;;;2.72;2.28;;;19.30;99.90;;;;;;4986245;28;20212;-63
2023/08/03 11:51:36;;;;;;;6.50;2.13;;;19.30;99.90;;;;;;5004365;28;20241;-62
2023/08/03 11:54:04;;;;;;;3.45;1.60;;;19.00;99.90;;;;;;5002176;28;20189;-63
2023/08/03 11:56:33;;;;;;;2.08;1.45;;;19.00;99.90;;;;;;5001335;28;20561;-62
2023/08/03 11:59:10;;;;;;;2.42;1.63;;;18.80;99.90;;;;;;5004460;28;20270;-63
2023/08/03 12:01:48;;;;;;;2.40;1.50;;;18.80;99.90;;;;;;5001212;28;20295;-62
2023/08/03 12:04:17;;;;;;;1.70;1.50;;;18.70;99.90;;;;;;4983682;28;20248;-62
2023/08/03 12:06:51;;;;;;;2.80;1.65;;;18.50;99.90;;;;;;5004442;28;20276;-63
2023/08/03 12:09:26;;;;;;;2.33;1.85;;;18.50;99.90;;;;;;4999888;28;20292;-62
2023/08/03 12:12:03;;;;;;;1.90;1.52;;;18.50;99.90;;;;;;5001364;28;20235;-63
2023/08/03 12:14:31;;;;;;;5.65;1.67;;;18.60;99.90;;;;;;4985993;28;20874;-61
2023/08/03 12:16:59;;;;;;;2.83;1.77;;;18.60;99.90;;;;;;4966712;28;20296;-63
2023/08/03 12:19:33;;;;;;;3.15;2.15;;;18.60;99.90;;;;;;5003156;28;20912;-61
2023/08/03 12:22:02;;;;;;;2.00;1.80;;;18.60;99.90;;;;;;4986333;28;20188;-62
2023/08/03 12:24:31;;;;;;;2.42;2.00;;;18.70;99.90;;;;;;4966423;28;20800;-62
2023/08/03 12:26:59;;;;;;;2.28;1.70;;;19.00;99.90;;;;;;4997728;28;20323;-63
2023/08/03 12:29:29;;;;;;;1.40;1.30;;;19.20;99.90;;;;;;4975169;28;20566;-63
2023/08/03 12:31:56;;;;;;;3.35;1.90;;;19.60;99.90;;;;;;4983583;28;20612;-62
2023/08/03 12:34:24;;;;;;;4.45;1.90;;;19.90;99.90;;;;;;4982583;28;20204;-63
2023/08/03 12:36:52;;;;;;;3.53;2.15;;;20.20;99.90;;;;;;4970207;28;20193;-62
2023/08/03 12:39:20;;;;;;;2.10;1.50;;;20.20;99.90;;;;;;4977444;28;20573;-63
2023/08/03 12:41:47;;;;;;;3.42;2.08;;;20.40;99.90;;;;;;4985675;28;20189;-63
2023/08/03 12:44:15;;;;;;;3.67;2.20;;;20.20;99.90;;;;;;5001627;28;20646;-62
2023/08/03 12:46:42;;;;;;;1.67;1.55;;;20.20;99.90;;;;;;4999216;28;20247;-61
2023/08/03 12:49:10;;;;;;;3.58;2.10;;;20.40;99.90;;;;;;5002714;28;20208;-61
2023/08/03 12:51:37;;;;;;;2.67;1.73;;;20.50;99.90;;;;;;4981679;28;20227;-61
2023/08/03 12:54:05;;;;;;;4.90;2.05;;;20.80;99.90;;;;;;5002348;28;20626;-62
2023/08/03 12:56:36;;;;;;;4.57;2.08;;;21.50;99.90;;;;;;5003113;28;20676;-62
2023/08/03 12:59:04;;;;;;;2.75;2.08;;;21.50;99.90;;;;;;5003052;28;20233;-62
2023/08/03 13:01:32;;;;;;;4.63;2.05;;;21.50;99.90;;;;;;4999642;28;20200;-62
2023/08/03 13:03:59;;;;;;;2.78;1.90;;;21.60;99.90;;;;;;4981497;28;20278;-61
2023/08/03 13:06:26;;;;;;;4.03;1.95;;;21.60;99.90;;;;;;4981086;28;20259;-61
2023/08/03 13:08:53;;;;;;;1.98;1.80;;;21.90;99.90;;;;;;5000729;28;20737;-61
2023/08/03 13:11:21;;;;;;;4.22;1.75;;;22.10;99.90;;;;;;4994192;28;20602;-61
2023/08/03 13:13:48;;;;;;;4.18;2.03;;;21.90;99.90;;;;;;5000801;28;20276;-62
2023/08/03 13:16:16;;;;;;;6.13;2.33;;;22.30;99.90;;;;;;4968614;28;20205;-62
2023/08/03 13:18:43;;;;;;;6.22;2.17;;;21.90;99.90;;;;;;5000508;28;21127;-61
2023/08/03 13:21:12;;;;;;;2.45;1.85;;;21.50;99.90;;;;;;4998268;28;20200;-61
2023/08/03 13:23:39;;;;;;;2.47;1.73;;;21.80;99.90;;;;;;4999593;28;20209;-61
2023/08/03 13:26:07;;;;;;;6.95;3.05;;;22.30;99.90;;;;;;4983894;28;20189;-61
2023/08/03 13:28:34;;;;;;;4.30;1.90;;;22.50;99.90;;;;;;5000666;28;20201;-62
2023/08/03 13:31:01;;;;;;;2.20;2.00;;;22.90;99.90;;;;;;4998315;28;20271;-61
2023/08/03 13:33:28;;;;;;;2.00;1.50;;;23.00;99.90;;;;;;4983862;28;20668;-61
2023/08/03 13:35:55;;;;;;;2.50;1.67;;;23.10;99.90;;;;;;4997539;28;20727;-61
2023/08/03 13:38:22;;;;;;;1.63;1.30;;;22.90;99.90;;;;;;4966704;28;20201;-61
2023/08/03 13:40:49;;;;;;;2.05;1.40;;;22.90;99.90;;;;;;4975475;28;20197;-62
2023/08/03 13:43:16;;;;;;;3.60;2.03;;;22.70;99.90;;;;;;4994449;28;20514;-62
2023/08/03 13:45:43;;;;;;;3.58;1.30;;;22.70;99.90;;;;;;5000088;28;20193;-62
2023/08/03 13:48:12;;;;;;;2.83;1.42;;;22.80;99.90;;;;;;4982625;28;20272;-62
2023/08/03 13:50:40;;;;;;;2.30;1.48;;;22.50;99.90;;;;;;4981367;28;20194;-61
2023/08/03 13:53:08;;;;;;;6.40;1.75;;;22.30;99.90;;;;;;4981410;28;20220;-62
2023/08/03 13:55:35;;;;;;;2.67;1.40;;;22.10;99.90;;;;;;4997136;28;20197;-63
2023/08/03 13:58:02;;;;;;;1.98;1.33;;;22.60;99.90;;;;;;4980239;28;20332;-62
2023/08/03 14:00:34;;;;;;;1.85;1.38;;;22.50;99.90;;;;;;4983712;28;20212;-63
2023/08/03 14:03:05;;;;;;;3.10;1.33;;;22.00;99.90;;;;;;4987059;28;20251;-63
2023/08/03 14:05:32;;;;;;;2.70;1.30;;;22.10;99.90;;;;;;4999850;28;20201;-63
2023/08/03 14:08:02;;;;;;;2.15;1.10;;;22.40;99.90;;;;;;4975584;28;20512;-62
2023/08/03 14:10:30;;;;;;;1.98;1.33;;;22.40;99.90;;;;;;4982462;28;20323;-62
2023/08/03 14:13:01;;;;;;;2.00;1.30;;;22.30;99.90;;;;;;4999285;28;20677;-62
2023/08/03 14:15:30;;;;;;;1.65;1.40;;;22.40;99.90;;;;;;4999618;28;20197;-63
2023/08/03 14:18:00;;;;;;;3.50;1.40;;;22.60;99.90;;;;;;4978441;28;20757;-63
2023/08/03 14:20:47;;;;;;;2.45;1.50;;;22.30;99.90;;;;;;4989543;28;20793;-65
2023/08/03 14:23:17;;;;;;;2.08;1.63;;;22.00;99.90;;;;;;4985678;28;20286;-63
2023/08/03 14:25:47;;;;;;;1.67;1.20;;;22.10;99.90;;;;;;4998097;28;20199;-66
2023/08/03 14:28:16;;;;;;;2.28;1.23;;;22.20;99.90;;;;;;4984760;28;21050;-62
2023/08/03 14:30:45;;;;;;;4.00;1.65;;;22.00;99.90;;;;;;4986665;28;20193;-63
2023/08/03 14:33:13;;;;;;;5.05;1.40;;;22.40;99.90;;;;;;5001939;28;20217;-62
2023/08/03 14:35:40;;;;;;;1.33;1.23;;;22.40;99.90;;;;;;4987780;28;20283;-62
2023/08/03 14:38:07;;;;;;;2.15;1.95;;;22.50;99.90;;;;;;5006151;28;20225;-61
2023/08/03 14:40:34;;;;;;;6.30;1.45;;;21.80;99.90;;;;;;4985113;28;20197;-62
2023/08/03 14:43:01;;;;;;;1.98;1.60;;;21.60;99.90;;;;;;5002974;28;20670;-62
2023/08/03 14:45:29;;;;;;;3.15;1.83;;;21.60;99.90;;;;;;5002613;28;20271;-62
2023/08/03 14:48:02;;;;;;;4.00;2.10;;;21.20;99.90;;;;;;4992877;28;20208;-62
2023/08/03 14:50:34;;;;;;;3.40;1.52;;;21.20;99.90;;;;;;4981160;28;20200;-62
2023/08/03 14:53:01;;;;;;;1.40;1.30;;;21.30;99.90;;;;;;4999292;28;20219;-62
2023/08/03 14:55:29;;;;;;;3.33;1.70;;;21.30;99.90;;;;;;4982282;28;20668;-62
2023/08/03 14:57:56;;;;;;;3.92;1.90;;;20.90;99.90;;;;;;5003808;28;20244;-62
2023/08/03 15:00:23;;;;;;;1.83;1.45;;;20.70;99.90;;;;;;5003105;28;20201;-62
2023/08/03 15:02:50;;;;;;;8.10;1.92;;;20.40;99.90;;;;;;5002427;28;20201;-65
2023/08/03 15:05:18;;;;;;;4.43;3.25;;;20.30;99.90;;;;;;4998132;28;20287;-61
2023/08/03 15:07:46;;;;;;;2.55;1.85;;;20.30;99.90;;;;;;5000830;28;20197;-61
2023/08/03 15:10:14;;;;;;;6.18;2.40;;;20.20;99.90;;;;;;4999634;28;20204;-62
2023/08/03 15:12:41;;;;;;;4.35;2.13;;;20.20;99.90;;;;;;5002298;28;20838;-62
2023/08/03 15:15:09;;;;;;;3.47;2.25;;;20.30;99.90;;;;;;5004158;28;20200;-63
2023/08/03 15:17:36;;;;;;;2.72;2.13;;;20.50;99.90;;;;;;5005522;28;20287;-62
2023/08/03 15:20:05;;;;;;;3.50;2.20;;;20.80;99.90;;;;;;5000706;28;20255;-63
2023/08/03 15:22:33;;;;;;;3.05;2.30;;;20.70;99.90;;;;;;5003941;28;20197;-63
2023/08/03 15:25:01;;;;;;;4.78;2.53;;;20.90;99.90;;;;;;5003318;28;20204;-63
2023/08/03 15:27:30;;;;;;;3.55;2.10;;;20.90;99.90;;;;;;5003203;28;20221;-62
2023/08/03 15:30:00;;;;;;;3.97;2.45;;;21.00;99.90;;;;;;5002535;28;20201;-63
2023/08/03 15:32:47;;;;;;;2.90;2.10;;;20.90;99.90;;;;;;4990128;28;20680;-64
2023/08/03 15:35:36;;;;;;;2.15;1.85;;;21.00;99.90;;;;;;4993119;28;20644;-62
2023/08/03 15:38:06;;;;;;;2.67;1.70;;;20.80;99.90;;;;;;5001556;28;20519;-63
2023/08/03 15:40:35;;;;;;;2.67;1.38;;;20.80;99.90;;;;;;4987627;28;20206;-63
2023/08/03 15:43:22;;;;;;;2.03;1.70;;;20.40;99.90;;;;;;5005244;28;20189;-63
2023/08/03 15:45:53;;;;;;;2.92;2.25;;;20.00;99.90;;;;;;5004644;28;20241;-62
2023/08/03 15:48:27;;;;;;;2.05;1.60;;;20.10;99.90;;;;;;5004829;28;20193;-62
2023/08/03 15:50:57;;;;;;;3.42;1.67;;;20.20;99.90;;;;;;5005779;28;20189;-65
2023/08/03 15:53:27;;;;;;;3.35;1.80;;;20.20;99.90;;;;;;4991128;28;20233;-64
2023/08/03 15:56:04;;;;;;;3.22;1.70;;;20.30;99.90;;;;;;4992109;28;20283;-64
2023/08/03 15:58:31;;;;;;;3.00;1.60;;;20.30;99.90;;;;;;5004998;28;20643;-63
2023/08/03 16:01:03;;;;;;;1.75;1.45;;;20.30;99.90;;;;;;5006750;28;20841;-63
2023/08/03 16:03:31;;;;;;;4.85;3.33;;;20.40;99.90;;;;;;5003213;28;20730;-62
2023/08/03 16:06:04;;;;;;;10.38;6.25;;;20.60;99.90;;;;;;4989894;28;20288;-62
2023/08/03 16:08:31;;;;;;;6.47;5.00;;;20.50;99.90;;;;;;5005854;28;20850;-62
2023/08/03 16:10:59;;;;;;;5.22;2.67;;;20.30;99.90;;;;;;4990839;28;20200;-62
2023/08/03 16:13:28;;;;;;;4.93;1.60;;;20.20;99.90;;;;;;4989832;28;20236;-62
2023/08/03 16:16:02;;;;;;;4.97;2.47;;;19.90;99.90;;;;;;4987462;28;20292;-62
2023/08/03 16:18:30;;;;;;;1.67;1.48;;;19.90;99.90;;;;;;4987818;28;20551;-62
2023/08/03 16:20:57;;;;;;;1.67;1.23;;;20.00;99.90;;;;;;4984977;28;20205;-62
2023/08/03 16:23:24;;;;;;;2.95;1.10;;;19.90;99.90;;;;;;4988525;28;20217;-62
2023/08/03 16:25:51;;;;;;;2.55;0.90;;;20.00;99.90;;;;;;5006654;28;20224;-62
2023/08/03 16:28:18;;;;;;;1.17;1.08;;;20.10;99.90;;;;;;4973550;28;20654;-62
2023/08/03 16:30:46;;;;;;;2.97;1.35;;;20.00;99.90;;;;;;5008111;28;20201;-64
2023/08/03 16:33:14;;;;;;;2.03;1.63;;;19.80;99.90;;;;;;4989574;28;20612;-62
2023/08/03 16:35:41;;;;;;;1.67;1.27;;;19.70;99.90;;;;;;4990749;28;20288;-62
2023/08/03 16:38:08;;;;;;;1.25;1.00;;;19.80;99.90;;;;;;4989174;28;20197;-62
2023/08/03 16:40:35;;;;;;;1.73;1.20;;;19.70;99.90;;;;;;4989659;28;20296;-62
2023/08/03 16:43:03;;;;;;;5.13;0.90;;;19.80;99.90;;;;;;4989560;28;20594;-62
2023/08/03 16:45:32;;;;;;;1.30;1.00;;;19.80;99.90;;;;;;5008317;28;20607;-62
2023/08/03 16:47:59;;;;;;;2.33;1.10;;;19.80;99.90;;;;;;5006654;28;20201;-62
2023/08/03 16:50:27;;;;;;;3.17;2.40;;;19.80;99.90;;;;;;4986251;28;20207;-62
2023/08/03 16:52:54;;;;;;;7.20;4.22;;;20.20;99.90;;;;;;5006422;28;20243;-62
2023/08/03 16:55:21;;;;;;;8.65;4.35;;;20.50;99.90;;;;;;4989473;28;20239;-62
2023/08/03 16:57:48;;;;;;;8.38;5.07;;;20.70;99.90;;;;;;5006123;28;20236;-62
2023/08/03 17:00:15;;;;;;;4.57;2.30;;;20.70;99.90;;;;;;5005995;28;20287;-62
2023/08/03 17:02:43;;;;;;;3.10;1.42;;;20.50;99.90;;;;;;4987149;28;20927;-62
2023/08/03 17:05:10;;;;;;;1.58;1.17;;;20.30;99.90;;;;;;5002072;28;20219;-62
2023/08/03 17:07:40;;;;;;;4.57;1.08;;;20.20;99.90;;;;;;4990982;28;20857;-62
2023/08/03 17:10:09;;;;;;;4.90;1.00;;;20.30;99.90;;;;;;4988044;28;20565;-63
2023/08/03 17:12:36;;;;;;;3.03;1.00;;;20.20;99.90;;;;;;4988682;28;20304;-62
2023/08/03 17:15:05;;;;;;;2.50;1.30;;;20.10;99.90;;;;;;5006813;28;20199;-62
2023/08/03 17:17:32;;;;;;;2.58;0.90;;;20.00;99.90;;;;;;4988448;28;20197;-62
2023/08/03 17:19:59;;;;;;;2.20;1.58;;;19.80;99.90;;;;;;5003023;28;20201;-62
2023/08/03 17:22:26;;;;;;;1.75;1.02;;;19.80;99.90;;;;;;5005225;28;20973;-62
2023/08/03 17:24:55;;;;;;;3.15;1.20;;;19.60;99.90;;;;;;4988576;28;20229;-62
2023/08/03 17:27:22;;;;;;;3.58;1.20;;;19.50;99.90;;;;;;5005934;28;20200;-62
2023/08/03 17:29:49;;;;;;;2.10;1.75;;;19.20;99.90;;;;;;5007185;28;20185;-62
2023/08/03 17:32:16;;;;;;;2.78;1.45;;;19.00;99.90;;;;;;5006958;28;20209;-62
2023/08/03 17:34:43;;;;;;;2.58;1.30;;;18.80;99.90;;;;;;5003810;28;20652;-62
2023/08/03 17:37:10;;;;;;;2.17;1.45;;;18.60;99.90;;;;;;4989659;28;20856;-62
2023/08/03 17:39:37;;;;;;;2.35;2.05;;;18.70;99.90;;;;;;4975033;28;20201;-68
2023/08/03 17:42:06;;;;;;;3.85;2.75;;;18.70;99.90;;;;;;5004543;28;20190;-67
2023/08/03 17:44:33;;;;;;;9.07;3.03;;;18.70;99.90;;;;;;5007671;28;20671;-68
2023/08/03 17:47:00;;;;;;;4.13;2.92;;;18.70;99.90;;;;;;5007267;28;20223;-68
2023/08/03 17:49:27;;;;;;;4.00;2.15;;;18.80;99.90;;;;;;4988894;28;20196;-67
2023/08/03 17:51:55;;;;;;;6.68;1.90;;;18.90;99.90;;;;;;5008797;28;20188;-69
2023/08/03 17:54:22;;;;;;;1.98;1.70;;;19.00;99.90;;;;;;4980968;28;20228;-67
2023/08/03 17:56:51;;;;;;;2.28;1.63;;;19.10;99.90;;;;;;5008708;28;20221;-71
2023/08/03 17:59:18;;;;;;;6.50;2.20;;;19.10;99.90;;;;;;4990630;28;20256;-67
2023/08/03 18:01:45;;;;;;;5.65;3.00;;;19.20;99.90;;;;;;4978063;28;20715;-68
2023/08/03 18:04:12;;;;;;;8.95;2.97;;;19.00;99.90;;;;;;5010075;28;20222;-67
2023/08/03 18:06:39;;;;;;;3.95;2.60;;;19.00;99.90;;;;;;4993554;28;20973;-67
2023/08/03 18:09:07;;;;;;;5.28;1.98;;;18.90;99.90;;;;;;4994388;28;20193;-67
2023/08/03 18:11:34;;;;;;;3.63;1.83;;;18.80;99.90;;;;;;5006740;28;20201;-67
2023/08/03 18:14:01;;;;;;;4.70;2.05;;;18.70;99.90;;;;;;5005830;28;20503;-67
2023/08/03 18:16:28;;;;;;;5.63;1.58;;;18.50;99.90;;;;;;5007664;28;20224;-69
2023/08/03 18:18:56;;;;;;;3.35;1.65;;;18.50;99.90;;;;;;4991755;28;20207;-67
2023/08/03 18:21:24;;;;;;;5.80;1.80;;;18.40;99.90;;;;;;5008056;28;20585;-67
2023/08/03 18:23:56;;;;;;;6.45;1.58;;;18.50;99.90;;;;;;4996823;28;20539;-73
2023/08/03 18:26:24;;;;;;;3.33;1.80;;;18.40;99.90;;;;;;5012377;28;20197;-67
2023/08/03 18:28:53;;;;;;;1.77;1.40;;;18.50;99.90;;;;;;5009476;28;20193;-67
2023/08/03 18:31:20;;;;;;;3.72;1.60;;;18.50;99.90;;;;;;5008976;28;20189;-67
2023/08/03 18:33:47;;;;;;;10.65;5.60;;;18.40;99.90;;;;;;5011888;28;20201;-67
2023/08/03 18:36:18;;;;;;;5.57;2.80;;;18.50;99.90;;;;;;5012786;28;20185;-67
2023/08/03 18:38:47;;;;;;;13.07;8.05;;;18.50;99.90;;;;;;5011481;28;20280;-67
2023/08/03 18:41:18;;;;;;;6.10;3.50;;;18.50;99.90;;;;;;5011188;28;20259;-67
2023/08/03 18:43:47;;;;;;;7.45;3.08;;;18.50;99.90;;;;;;4993148;28;20217;-67
2023/08/03 18:46:19;;;;;;;3.17;2.47;;;18.50;99.90;;;;;;5014634;28;20532;-67
2023/08/03 18:48:46;;;;;;;2.65;1.90;;;18.50;99.90;;;;;;5011210;28;20193;-67
2023/08/03 18:51:19;;;;;;;3.63;2.33;;;18.60;99.90;;;;;;5008852;28;20596;-67
2023/08/03 18:53:47;;;;;;;11.43;5.65;;;18.60;99.90;;;;;;4979547;28;20728;-66
2023/08/03 18:56:21;;;;;;;8.13;4.13;;;18.60;99.90;;;;;;4988821;28;20205;-67
2023/08/03 18:58:53;;;;;;;5.85;4.03;;;18.50;99.90;;;;;;4977176;28;20710;-67
2023/08/03 19:01:21;;;;;;;9.20;2.00;;;18.40;99.90;;;;;;4987409;28;20764;-67
2023/08/03 19:03:51;;;;;;;3.78;1.90;;;18.20;99.90;;;;;;5009973;28;20231;-67
2023/08/03 19:06:19;;;;;;;5.18;2.80;;;18.10;99.90;;;;;;5008107;28;20664;-67
2023/08/03 19:08:46;;;;;;;4.53;1.92;;;18.00;99.90;;;;;;4987235;28;20559;-66
2023/08/03 19:11:14;;;;;;;5.50;2.15;;;18.00;99.90;;;;;;5010452;28;20221;-67
2023/08/03 19:13:45;;;;;;;6.28;2.45;;;17.90;99.90;;;;;;4983083;28;20216;-71
2023/08/03 19:16:12;;;;;;;6.05;2.30;;;17.90;99.90;;;;;;4998643;28;20189;-67
2023/08/03 19:18:41;;;;;;;4.63;2.13;;;17.90;99.90;;;;;;5004362;28;20720;-66
2023/08/03 19:21:08;;;;;;;7.60;2.20;;;17.90;99.90;;;;;;4998820;28;20283;-66
2023/08/03 19:23:35;;;;;;;12.60;2.60;;;17.80;99.90;;;;;;4981218;28;20279;-66
2023/08/03 19:26:02;;;;;;;4.22;1.95;;;17.70;99.90;;;;;;4997851;28;20205;-66
2023/08/03 19:28:29;;;;;;;6.88;2.05;;;17.70;99.90;;;;;;5003039;28;20204;-66
2023/08/03 19:30:57;;;;;;;10.25;2.00;;;17.70;99.90;;;;;;4999915;28;20205;-67
2023/08/03 19:33:25;;;;;;;5.75;1.67;;;17.70;99.90;;;;;;4999560;28;20682;-66
2023/08/03 19:35:53;;;;;;;3.03;1.92;;;17.70;99.90;;;;;;5003473;28;20272;-66
2023/08/03 19:38:20;;;;;;;10.85;2.58;;;17.50;99.90;;;;;;4987785;28;20646;-66
2023/08/03 19:40:52;;;;;;;5.40;2.28;;;17.50;99.90;;;;;;4986936;28;20327;-65
2023/08/03 19:43:19;;;;;;;8.90;2.30;;;17.60;99.90;;;;;;5005936;28;20207;-66
2023/08/03 19:45:46;;;;;;;5.65;2.60;;;17.50;99.90;;;;;;4987319;28;20212;-66
2023/08/03 19:48:13;;;;;;;4.18;1.80;;;17.50;99.90;;;;;;5000428;28;20193;-66
2023/08/03 19:50:40;;;;;;;7.07;3.50;;;17.50;99.90;;;;;;5001106;28;20918;-67
2023/08/03 19:53:12;;;;;;;7.50;2.83;;;17.50;99.90;;;;;;5002166;28;20213;-69
2023/08/03 19:55:42;;;;;;;7.68;2.30;;;17.40;99.90;;;;;;4981577;28;20877;-66
2023/08/03 19:58:11;;;;;;;3.28;2.05;;;17.40;99.90;;;;;;4984964;28;20231;-67
2023/08/03 20:00:41;;;;;;;5.03;2.35;;;17.30;99.90;;;;;;4999204;28;20284;-66
2023/08/03 20:03:11;;;;;;;5.30;1.95;;;17.30;99.90;;;;;;4983065;28;20195;-66
2023/08/03 20:05:42;;;;;;;5.35;2.08;;;17.30;99.90;;;;;;5000862;28;20660;-66
2023/08/03 20:08:12;;;;;;;6.75;2.25;;;17.30;99.90;;;;;;5001676;28;20243;-67
2023/08/03 20:10:43;;;;;;;7.78;2.67;;;17.30;99.90;;;;;;4967664;28;20213;-66
2023/08/03 20:13:10;;;;;;;3.53;2.38;;;17.10;99.90;;;;;;4998044;28;20232;-67
2023/08/03 20:15:37;;;;;;;4.80;2.50;;;17.00;99.90;;;;;;4986090;28;20557;-69
2023/08/03 20:18:07;;;;;;;6.78;2.25;;;16.90;99.90;;;;;;4984484;28;20219;-68
2023/08/03 20:20:39;;;;;;;5.28;2.20;;;17.00;99.90;;;;;;4987143;28;20185;-68
2023/08/03 20:23:06;;;;;;;5.32;2.55;;;17.00;99.90;;;;;;4985850;28;20200;-65
2023/08/03 20:25:33;;;;;;;5.00;2.50;;;17.00;99.90;;;;;;4986504;28;20200;-66
2023/08/03 20:28:00;;;;;;;8.25;2.67;;;17.10;99.90;;;;;;5000695;28;20993;-65
2023/08/03 20:30:38;;;;;;;8.85;3.63;;;17.00;99.90;;;;;;5003430;28;20268;-63
2023/08/03 20:33:05;;;;;;;9.88;2.53;;;17.00;99.90;;;;;;5013073;28;20697;-65
2023/08/03 20:35:32;;;;;;;10.77;3.40;;;17.00;99.90;;;;;;5001747;28;20780;-66
2023/08/03 20:38:01;;;;;;;3.30;2.05;;;17.10;99.90;;;;;;5000763;28;20668;-64
2023/08/03 20:40:34;;;;;;;6.32;2.85;;;17.00;99.90;;;;;;5002818;28;20566;-63
2023/08/03 20:43:03;;;;;;;8.25;2.55;;;16.90;99.90;;;;;;5001328;28;20201;-64
2023/08/03 20:45:43;;;;;;;6.05;2.42;;;16.90;99.90;;;;;;5000203;28;20216;-64
2023/08/03 20:48:15;;;;;;;6.03;3.25;;;16.90;99.90;;;;;;4988405;28;20657;-62
2023/08/03 20:50:46;;;;;;;4.82;2.55;;;17.00;99.90;;;;;;5008128;28;20204;-63
2023/08/03 20:53:15;;;;;;;5.97;2.40;;;17.00;99.90;;;;;;4984964;28;20267;-63
2023/08/03 20:55:48;;;;;;;10.00;3.15;;;17.00;99.90;;;;;;5004736;28;20192;-63